sensor_id;sensor_type;location;lat;lon;timestamp;pressure;altitude;pressure_sealevel;temperature;humidity
51289;BME280;37372;52.294;5.152;2023-04-07T00:01:43;101463.50;;;7.57;89.02
51289;BME280;37372;52.294;5.152;2023-04-07T00:04:19;101463.72;;;7.55;89.53
51289;BME280;37372;52.294;5.152;2023-04-07T00:06:44;101457.78;;;7.52;89.13
51289;BME280;37372;52.294;5.152;2023-04-07T00:09:10;101458.25;;;7.55;89.49
51289;BME280;37372;52.294;5.152;2023-04-07T00:11:36;101460.09;;;7.48;89.52
51289;BME280;37372;52.294;5.152;2023-04-07T00:14:24;101462.81;;;7.48;89.68
51289;BME280;37372;52.294;5.152;2023-04-07T00:16:50;101467.81;;;7.45;90.09
51289;BME280;37372;52.294;5.152;2023-04-07T00:19:15;101465.28;;;7.43;89.57
51289;BME280;37372;52.294;5.152;2023-04-07T00:21:40;101467.59;;;7.46;90.05
51289;BME280;37372;52.294;5.152;2023-04-07T00:24:15;101466.75;;;7.46;89.72
51289;BME280;37372;52.294;5.152;2023-04-07T00:26:48;101468.34;;;7.55;89.73
51289;BME280;37372;52.294;5.152;2023-04-07T00:29:20;101471.00;;;7.48;89.53
51289;BME280;37372;52.294;5.152;2023-04-07T00:31:45;101461.44;;;7.59;89.16
51289;BME280;37372;52.294;5.152;2023-04-07T00:34:19;101466.03;;;7.58;89.04
51289;BME280;37372;52.294;5.152;2023-04-07T00:36:45;101467.44;;;7.48;89.37
51289;BME280;37372;52.294;5.152;2023-04-07T00:39:19;101462.97;;;7.47;89.44
51289;BME280;37372;52.294;5.152;2023-04-07T00:42:03;101466.44;;;7.55;89.30
51289;BME280;37372;52.294;5.152;2023-04-07T00:44:47;101463.13;;;7.60;88.96
51289;BME280;37372;52.294;5.152;2023-04-07T00:47:13;101466.03;;;7.58;88.50
51289;BME280;37372;52.294;5.152;2023-04-07T00:49:45;101471.97;;;7.62;88.72
51289;BME280;37372;52.294;5.152;2023-04-07T00:52:11;101470.22;;;7.54;88.38
51289;BME280;37372;52.294;5.152;2023-04-07T00:55:15;101466.44;;;7.55;88.45
51289;BME280;37372;52.294;5.152;2023-04-07T00:57:53;101475.75;;;7.61;87.95
51289;BME280;37372;52.294;5.152;2023-04-07T01:00:26;101468.34;;;7.55;88.02
51289;BME280;37372;52.294;5.152;2023-04-07T01:03:03;101465.13;;;7.51;88.73
51289;BME280;37372;52.294;5.152;2023-04-07T01:05:53;101479.00;;;7.50;88.72
51289;BME280;37372;52.294;5.152;2023-04-07T01:08:56;101476.25;;;7.50;88.99
51289;BME280;37372;52.294;5.152;2023-04-07T01:11:49;101476.25;;;7.50;88.83
51289;BME280;37372;52.294;5.152;2023-04-07T01:14:20;101479.38;;;7.47;88.41
51289;BME280;37372;52.294;5.152;2023-04-07T01:16:51;101469.31;;;7.47;88.68
51289;BME280;37372;52.294;5.152;2023-04-07T01:31:17;101471.91;;;7.55;88.68
51289;BME280;37372;52.294;5.152;2023-04-07T01:33:44;101468.97;;;7.57;88.27
51289;BME280;37372;52.294;5.152;2023-04-07T01:36:18;101469.50;;;7.67;87.73
51289;BME280;37372;52.294;5.152;2023-04-07T01:38:50;101468.97;;;7.57;87.71
51289;BME280;37372;52.294;5.152;2023-04-07T01:41:21;101474.06;;;7.60;87.46
51289;BME280;37372;52.294;5.152;2023-04-07T01:43:51;101467.66;;;7.53;87.73
51289;BME280;37372;52.294;5.152;2023-04-07T01:46:35;101480.09;;;7.55;87.71
51289;BME280;37372;52.294;5.152;2023-04-07T01:49:04;101472.06;;;7.47;88.48
51289;BME280;37372;52.294;5.152;2023-04-07T01:51:31;101474.16;;;7.52;88.55
51289;BME280;37372;52.294;5.152;2023-04-07T01:54:41;101477.94;;;7.51;88.06
51289;BME280;37372;52.294;5.152;2023-04-07T01:57:10;101477.75;;;7.52;87.86
51289;BME280;37372;52.294;5.152;2023-04-07T01:59:35;101478.59;;;7.53;88.04
51289;BME280;37372;52.294;5.152;2023-04-07T02:02:04;101480.47;;;7.52;88.14
51289;BME280;37372;52.294;5.152;2023-04-07T02:04:38;101481.09;;;7.48;87.96
51289;BME280;37372;52.294;5.152;2023-04-07T02:07:11;101483.81;;;7.48;88.20
51289;BME280;37372;52.294;5.152;2023-04-07T02:10:02;101482.09;;;7.47;88.31
51289;BME280;37372;52.294;5.152;2023-04-07T02:12:36;101481.09;;;7.48;87.97
51289;BME280;37372;52.294;5.152;2023-04-07T02:15:07;101479.84;;;7.50;88.42
51289;BME280;37372;52.294;5.152;2023-04-07T02:17:37;101472.28;;;7.52;87.99
51289;BME280;37372;52.294;5.152;2023-04-07T02:20:05;101478.28;;;7.63;86.93
51289;BME280;37372;52.294;5.152;2023-04-07T02:22:38;101482.00;;;7.55;87.22
51289;BME280;37372;52.294;5.152;2023-04-07T02:25:30;101478.78;;;7.51;87.69
51289;BME280;37372;52.294;5.152;2023-04-07T02:27:59;101486.53;;;7.48;87.59
51289;BME280;37372;52.294;5.152;2023-04-07T02:33:51;101483.47;;;7.57;87.53
51289;BME280;37372;52.294;5.152;2023-04-07T02:36:19;101483.41;;;7.51;87.55
51289;BME280;37372;52.294;5.152;2023-04-07T02:38:56;101484.03;;;7.53;87.67
51289;BME280;37372;52.294;5.152;2023-04-07T02:41:24;101488.22;;;7.49;87.55
51289;BME280;37372;52.294;5.152;2023-04-07T02:43:51;101478.66;;;7.59;87.31
51289;BME280;37372;52.294;5.152;2023-04-07T02:46:27;101485.94;;;7.52;87.50
51289;BME280;37372;52.294;5.152;2023-04-07T02:48:52;101485.28;;;7.50;87.71
51289;BME280;37372;52.294;5.152;2023-04-07T02:51:26;101485.50;;;7.49;87.87
51289;BME280;37372;52.294;5.152;2023-04-07T02:53:59;101482.34;;;7.52;87.57
51289;BME280;37372;52.294;5.152;2023-04-07T02:56:24;101479.91;;;7.57;87.25
51289;BME280;37372;52.294;5.152;2023-04-07T02:59:05;101486.78;;;7.53;87.36
51289;BME280;37372;52.294;5.152;2023-04-07T03:02:06;101481.78;;;7.56;86.86
51289;BME280;37372;52.294;5.152;2023-04-07T03:04:34;101478.06;;;7.64;85.93
51289;BME280;37372;52.294;5.152;2023-04-07T03:07:00;101478.72;;;7.66;86.09
51289;BME280;37372;52.294;5.152;2023-04-07T03:09:25;101484.50;;;7.56;86.33
51289;BME280;37372;52.294;5.152;2023-04-07T03:11:51;101489.34;;;7.54;87.11
51289;BME280;37372;52.294;5.152;2023-04-07T03:14:37;101484.03;;;7.53;86.75
51289;BME280;37372;52.294;5.152;2023-04-07T03:17:03;101478.34;;;7.48;87.14
51289;BME280;37372;52.294;5.152;2023-04-07T03:19:28;101487.81;;;7.52;87.41
51289;BME280;37372;52.294;5.152;2023-04-07T03:21:54;101484.44;;;7.50;86.91
51289;BME280;37372;52.294;5.152;2023-04-07T03:24:19;101484.03;;;7.53;86.74
51289;BME280;37372;52.294;5.152;2023-04-07T03:26:45;101477.81;;;7.59;85.91
51289;BME280;37372;52.294;5.152;2023-04-07T03:29:10;101485.34;;;7.57;86.67
51289;BME280;37372;52.294;5.152;2023-04-07T03:31:36;101480.81;;;7.64;85.96
51289;BME280;37372;52.294;5.152;2023-04-07T03:34:11;101484.97;;;7.60;85.92
51289;BME280;37372;52.294;5.152;2023-04-07T03:36:56;101480.69;;;7.51;86.90
51289;BME280;37372;52.294;5.152;2023-04-07T03:39:22;101490.75;;;7.50;87.45
51289;BME280;37372;52.294;5.152;2023-04-07T03:42:07;101479.19;;;7.48;87.68
51289;BME280;37372;52.294;5.152;2023-04-07T03:44:33;101487.56;;;7.47;87.71
51289;BME280;37372;52.294;5.152;2023-04-07T03:46:59;101492.38;;;7.45;87.54
51289;BME280;37372;52.294;5.152;2023-04-07T03:49:25;101486.84;;;7.38;87.77
51289;BME280;37372;52.294;5.152;2023-04-07T03:51:57;101489.22;;;7.41;87.99
51289;BME280;37372;52.294;5.152;2023-04-07T03:54:27;101493.16;;;7.39;87.83
51289;BME280;37372;52.294;5.152;2023-04-07T03:56:52;101484.69;;;7.33;88.19
51289;BME280;37372;52.294;5.152;2023-04-07T03:59:24;101488.94;;;7.36;88.32
51289;BME280;37372;52.294;5.152;2023-04-07T04:01:50;101491.09;;;7.41;88.17
51289;BME280;37372;52.294;5.152;2023-04-07T04:04:16;101486.34;;;7.28;88.55
51289;BME280;37372;52.294;5.152;2023-04-07T04:06:42;101490.28;;;7.25;88.52
51289;BME280;37372;52.294;5.152;2023-04-07T04:09:07;101495.09;;;7.23;88.57
51289;BME280;37372;52.294;5.152;2023-04-07T04:11:33;101491.13;;;7.26;88.33
51289;BME280;37372;52.294;5.152;2023-04-07T04:14:35;101490.91;;;7.27;87.85
51289;BME280;37372;52.294;5.152;2023-04-07T04:17:18;101493.00;;;7.25;88.33
51289;BME280;37372;52.294;5.152;2023-04-07T04:19:43;101499.03;;;7.21;88.65
51289;BME280;37372;52.294;5.152;2023-04-07T04:22:28;101501.19;;;7.25;87.85
51289;BME280;37372;52.294;5.152;2023-04-07T04:25:18;101507.13;;;7.29;87.82
51289;BME280;37372;52.294;5.152;2023-04-07T04:27:56;101507.69;;;7.24;87.50
51289;BME280;37372;52.294;5.152;2023-04-07T04:33:21;101517.78;;;7.24;87.76
51289;BME280;37372;52.294;5.152;2023-04-07T04:35:52;101511.25;;;7.25;87.32
51289;BME280;37372;52.294;5.152;2023-04-07T04:38:38;101516.94;;;7.23;86.84
51289;BME280;37372;52.294;5.152;2023-04-07T04:41:04;101521.34;;;7.24;86.90
51289;BME280;37372;52.294;5.152;2023-04-07T04:43:34;101524.72;;;7.26;87.22
51289;BME280;37372;52.294;5.152;2023-04-07T04:46:15;101527.00;;;7.23;87.55
51289;BME280;37372;52.294;5.152;2023-04-07T04:48:40;101529.94;;;7.21;88.11
51289;BME280;37372;52.294;5.152;2023-04-07T04:51:06;101529.94;;;7.21;88.54
51289;BME280;37372;52.294;5.152;2023-04-07T04:54:19;101531.69;;;7.29;87.49
51289;BME280;37372;52.294;5.152;2023-04-07T04:56:44;101528.88;;;7.22;87.58
51289;BME280;37372;52.294;5.152;2023-04-07T04:59:31;101537.44;;;7.19;87.84
51289;BME280;37372;52.294;5.152;2023-04-07T05:02:04;101543.56;;;7.21;87.92
51289;BME280;37372;52.294;5.152;2023-04-07T05:04:39;101532.47;;;7.23;88.26
51289;BME280;37372;52.294;5.152;2023-04-07T05:07:26;101534.41;;;7.29;87.58
51289;BME280;37372;52.294;5.152;2023-04-07T05:09:51;101534.34;;;7.22;87.85
51289;BME280;37372;52.294;5.152;2023-04-07T05:12:20;101539.59;;;7.24;87.96
51289;BME280;37372;52.294;5.152;2023-04-07T05:14:46;101536.88;;;7.24;87.86
51289;BME280;37372;52.294;5.152;2023-04-07T05:17:15;101537.91;;;7.23;87.80
51289;BME280;37372;52.294;5.152;2023-04-07T05:19:41;101541.84;;;7.20;88.69
51289;BME280;37372;52.294;5.152;2023-04-07T05:22:06;101545.81;;;7.18;88.98
51289;BME280;37372;52.294;5.152;2023-04-07T05:24:34;101547.66;;;7.32;88.06
51289;BME280;37372;52.294;5.152;2023-04-07T05:26:59;101551.63;;;7.29;88.01
51289;BME280;37372;52.294;5.152;2023-04-07T05:29:26;101558.50;;;7.25;88.02
51289;BME280;37372;52.294;5.152;2023-04-07T05:31:51;101553.69;;;7.27;87.85
51289;BME280;37372;52.294;5.152;2023-04-07T05:34:33;101556.81;;;7.24;88.31
51289;BME280;37372;52.294;5.152;2023-04-07T05:36:58;101558.97;;;7.29;88.25
51289;BME280;37372;52.294;5.152;2023-04-07T05:42:29;101559.34;;;7.26;88.36
51289;BME280;37372;52.294;5.152;2023-04-07T05:44:55;101561.31;;;7.32;87.64
51289;BME280;37372;52.294;5.152;2023-04-07T05:47:32;101564.88;;;7.32;88.24
51289;BME280;37372;52.294;5.152;2023-04-07T05:50:40;101572.88;;;7.34;87.94
51289;BME280;37372;52.294;5.152;2023-04-07T05:53:06;101577.47;;;7.33;88.21
51289;BME280;37372;52.294;5.152;2023-04-07T05:55:34;101571.00;;;7.35;88.38
51289;BME280;37372;52.294;5.152;2023-04-07T05:58:00;101570.63;;;7.38;87.60
51289;BME280;37372;52.294;5.152;2023-04-07T06:00:26;101571.53;;;7.45;87.90
51289;BME280;37372;52.294;5.152;2023-04-07T06:02:51;101573.53;;;7.36;87.93
51289;BME280;37372;52.294;5.152;2023-04-07T06:05:20;101574.38;;;7.37;88.16
51289;BME280;37372;52.294;5.152;2023-04-07T06:07:47;101580.69;;;7.37;88.13
51289;BME280;37372;52.294;5.152;2023-04-07T06:10:14;101581.63;;;7.44;88.37
51289;BME280;37372;52.294;5.152;2023-04-07T06:12:44;101589.16;;;7.42;87.98
51289;BME280;37372;52.294;5.152;2023-04-07T06:15:20;101589.34;;;7.41;88.50
51289;BME280;37372;52.294;5.152;2023-04-07T06:17:45;101586.50;;;7.49;88.36
51289;BME280;37372;52.294;5.152;2023-04-07T06:20:11;101591.41;;;7.39;87.53
51289;BME280;37372;52.294;5.152;2023-04-07T06:22:36;101596.50;;;7.42;88.36
51289;BME280;37372;52.294;5.152;2023-04-07T06:25:05;101599.03;;;7.43;87.88
51289;BME280;37372;52.294;5.152;2023-04-07T06:27:31;101591.56;;;7.52;87.81
51289;BME280;37372;52.294;5.152;2023-04-07T06:29:59;101602.03;;;7.48;87.87
51289;BME280;37372;52.294;5.152;2023-04-07T06:32:25;101602.13;;;7.55;88.21
51289;BME280;37372;52.294;5.152;2023-04-07T06:35:00;101603.81;;;7.56;87.94
51289;BME280;37372;52.294;5.152;2023-04-07T06:37:30;101601.28;;;7.54;88.09
51289;BME280;37372;52.294;5.152;2023-04-07T06:40:27;101603.25;;;7.60;87.71
51289;BME280;37372;52.294;5.152;2023-04-07T06:42:53;101607.06;;;7.66;87.96
51289;BME280;37372;52.294;5.152;2023-04-07T06:45:24;101604.16;;;7.68;87.33
51289;BME280;37372;52.294;5.152;2023-04-07T06:47:49;101609.69;;;7.74;87.68
51289;BME280;37372;52.294;5.152;2023-04-07T06:50:15;101614.19;;;7.82;87.08
51289;BME280;37372;52.294;5.152;2023-04-07T06:53:11;101614.81;;;7.84;86.68
51289;BME280;37372;52.294;5.152;2023-04-07T06:55:36;101606.97;;;7.96;85.91
51289;BME280;37372;52.294;5.152;2023-04-07T06:58:04;101613.47;;;7.95;86.27
51289;BME280;37372;52.294;5.152;2023-04-07T07:00:43;101625.25;;;7.95;85.63
51289;BME280;37372;52.294;5.152;2023-04-07T07:03:08;101621.25;;;7.98;85.79
51289;BME280;37372;52.294;5.152;2023-04-07T07:08:26;101626.41;;;8.07;84.19
51289;BME280;37372;52.294;5.152;2023-04-07T07:10:51;101631.63;;;8.02;85.17
51289;BME280;37372;52.294;5.152;2023-04-07T07:13:22;101638.31;;;8.00;83.95
51289;BME280;37372;52.294;5.152;2023-04-07T07:15:49;101635.25;;;7.88;85.77
51289;BME280;37372;52.294;5.152;2023-04-07T07:18:14;101636.75;;;7.91;84.92
51289;BME280;37372;52.294;5.152;2023-04-07T07:23:35;101639.38;;;7.99;83.63
51289;BME280;37372;52.294;5.152;2023-04-07T07:26:05;101648.97;;;7.95;83.63
51289;BME280;37372;52.294;5.152;2023-04-07T07:28:30;101650.31;;;7.99;84.47
51289;BME280;37372;52.294;5.152;2023-04-07T07:30:58;101654.00;;;8.12;83.96
51289;BME280;37372;52.294;5.152;2023-04-07T07:33:32;101640.78;;;8.16;83.71
51289;BME280;37372;52.294;5.152;2023-04-07T07:36:09;101646.50;;;8.21;83.00
51289;BME280;37372;52.294;5.152;2023-04-07T07:38:34;101656.13;;;8.17;82.57
51289;BME280;37372;52.294;5.152;2023-04-07T07:41:06;101661.75;;;8.09;83.15
51289;BME280;37372;52.294;5.152;2023-04-07T07:43:34;101659.41;;;8.06;83.02
51289;BME280;37372;52.294;5.152;2023-04-07T07:46:04;101665.81;;;7.98;83.07
51289;BME280;37372;52.294;5.152;2023-04-07T07:48:29;101666.84;;;8.12;84.03
51289;BME280;37372;52.294;5.152;2023-04-07T07:50:55;101672.28;;;8.12;83.72
51289;BME280;37372;52.294;5.152;2023-04-07T07:56:00;101671.97;;;8.22;82.83
51289;BME280;37372;52.294;5.152;2023-04-07T07:58:26;101674.56;;;8.30;82.44
51289;BME280;37372;52.294;5.152;2023-04-07T08:00:51;101674.91;;;8.41;82.47
51289;BME280;37372;52.294;5.152;2023-04-07T08:03:22;101676.66;;;8.49;81.81
51289;BME280;37372;52.294;5.152;2023-04-07T08:05:48;101675.09;;;8.61;80.34
51289;BME280;37372;52.294;5.152;2023-04-07T08:08:14;101679.34;;;8.64;79.06
51289;BME280;37372;52.294;5.152;2023-04-07T08:11:01;101688.69;;;8.55;80.25
51289;BME280;37372;52.294;5.152;2023-04-07T08:14:02;101679.97;;;8.66;79.76
51289;BME280;37372;52.294;5.152;2023-04-07T08:16:50;101688.56;;;8.63;80.39
51289;BME280;37372;52.294;5.152;2023-04-07T08:20:13;101697.28;;;8.73;80.91
51289;BME280;37372;52.294;5.152;2023-04-07T08:22:23;101699.06;;;8.87;77.96
51289;BME280;37372;52.294;5.152;2023-04-07T08:25:07;101702.31;;;8.70;77.34
51289;BME280;37372;52.294;5.152;2023-04-07T08:27:53;101692.91;;;8.79;78.04
51289;BME280;37372;52.294;5.152;2023-04-07T08:30:22;101699.91;;;8.88;79.53
51289;BME280;37372;52.294;5.152;2023-04-07T08:32:50;101707.69;;;8.84;79.64
51289;BME280;37372;52.294;5.152;2023-04-07T08:35:22;101706.91;;;8.90;78.59
51289;BME280;37372;52.294;5.152;2023-04-07T08:37:50;101709.38;;;8.85;79.30
51289;BME280;37372;52.294;5.152;2023-04-07T08:40:25;101706.00;;;8.83;80.21
51289;BME280;37372;52.294;5.152;2023-04-07T08:42:51;101713.59;;;8.88;79.89
51289;BME280;37372;52.294;5.152;2023-04-07T08:45:24;101714.19;;;9.11;80.11
51289;BME280;37372;52.294;5.152;2023-04-07T08:47:54;101709.31;;;9.35;79.13
51289;BME280;37372;52.294;5.152;2023-04-07T08:50:26;101715.63;;;9.35;76.71
51289;BME280;37372;52.294;5.152;2023-04-07T08:53:05;101714.50;;;9.23;78.14
51289;BME280;37372;52.294;5.152;2023-04-07T08:55:36;101714.88;;;9.48;77.62
51289;BME280;37372;52.294;5.152;2023-04-07T08:58:04;101720.16;;;9.56;76.66
51289;BME280;37372;52.294;5.152;2023-04-07T09:00:36;101723.44;;;9.38;77.07
51289;BME280;37372;52.294;5.152;2023-04-07T09:03:04;101718.00;;;9.45;75.72
51289;BME280;37372;52.294;5.152;2023-04-07T09:05:39;101716.13;;;9.52;75.45
51289;BME280;37372;52.294;5.152;2023-04-07T09:08:05;101720.22;;;9.28;75.81
51289;BME280;37372;52.294;5.152;2023-04-07T09:10:30;101723.19;;;9.33;76.96
51289;BME280;37372;52.294;5.152;2023-04-07T09:12:58;101732.59;;;9.59;76.26
51289;BME280;37372;52.294;5.152;2023-04-07T09:15:33;101736.59;;;9.56;75.89
51289;BME280;37372;52.294;5.152;2023-04-07T09:18:05;101732.13;;;9.48;75.93
51289;BME280;37372;52.294;5.152;2023-04-07T09:23:36;101740.94;;;9.44;75.17
51289;BME280;37372;52.294;5.152;2023-04-07T09:26:25;101746.63;;;9.42;77.16
51289;BME280;37372;52.294;5.152;2023-04-07T09:29:24;101748.44;;;9.63;76.99
51289;BME280;37372;52.294;5.152;2023-04-07T09:31:49;101741.06;;;9.64;75.46
51289;BME280;37372;52.294;5.152;2023-04-07T09:34:30;101745.28;;;9.60;76.76
51289;BME280;37372;52.294;5.152;2023-04-07T09:36:59;101748.91;;;9.39;76.73
51289;BME280;37372;52.294;5.152;2023-04-07T09:39:28;101747.81;;;9.61;76.57
51289;BME280;37372;52.294;5.152;2023-04-07T09:41:54;101750.66;;;9.88;74.20
51289;BME280;37372;52.294;5.152;2023-04-07T09:44:21;101758.13;;;9.66;74.59
51289;BME280;37372;52.294;5.152;2023-04-07T09:46:59;101754.84;;;9.42;76.21
51289;BME280;37372;52.294;5.152;2023-04-07T09:49:25;101746.13;;;9.32;75.48
51289;BME280;37372;52.294;5.152;2023-04-07T09:52:01;101746.84;;;9.41;73.58
51289;BME280;37372;52.294;5.152;2023-04-07T09:54:36;101750.34;;;9.63;74.39
51289;BME280;37372;52.294;5.152;2023-04-07T09:57:03;101752.44;;;9.61;74.59
51289;BME280;37372;52.294;5.152;2023-04-07T09:59:30;101758.00;;;9.74;73.73
51289;BME280;37372;52.294;5.152;2023-04-07T10:01:58;101756.00;;;9.55;73.97
51289;BME280;37372;52.294;5.152;2023-04-07T10:04:26;101748.63;;;9.55;74.02
51289;BME280;37372;52.294;5.152;2023-04-07T10:06:52;101753.22;;;9.48;74.37
51289;BME280;37372;52.294;5.152;2023-04-07T10:09:22;101749.91;;;9.66;72.61
51289;BME280;37372;52.294;5.152;2023-04-07T10:11:55;101751.63;;;9.67;73.75
51289;BME280;37372;52.294;5.152;2023-04-07T10:14:30;101755.56;;;9.58;73.23
51289;BME280;37372;52.294;5.152;2023-04-07T10:16:59;101749.97;;;9.72;71.59
51289;BME280;37372;52.294;5.152;2023-04-07T10:19:38;101754.78;;;9.70;73.80
51289;BME280;37372;52.294;5.152;2023-04-07T10:22:04;101762.56;;;9.60;74.28
51289;BME280;37372;52.294;5.152;2023-04-07T10:28:06;101764.28;;;9.68;72.80
51289;BME280;37372;52.294;5.152;2023-04-07T10:30:49;101778.69;;;9.48;72.52
51289;BME280;37372;52.294;5.152;2023-04-07T10:33:15;101780.38;;;9.49;74.62
51289;BME280;37372;52.294;5.152;2023-04-07T10:36:07;101778.56;;;9.63;73.30
51289;BME280;37372;52.294;5.152;2023-04-07T10:41:34;101779.94;;;9.81;73.14
51289;BME280;37372;52.294;5.152;2023-04-07T10:44:08;101791.88;;;10.08;72.11
51289;BME280;37372;52.294;5.152;2023-04-07T10:55:27;101785.91;;;9.97;72.81
51289;BME280;37372;52.294;5.152;2023-04-07T10:57:36;101788.94;;;10.16;73.05
51289;BME280;37372;52.294;5.152;2023-04-07T11:02:54;101789.91;;;9.95;74.54
51289;BME280;37372;52.294;5.152;2023-04-07T11:05:32;101794.59;;;10.01;74.65
51289;BME280;37372;52.294;5.152;2023-04-07T11:08:04;101793.56;;;10.09;74.38
51289;BME280;37372;52.294;5.152;2023-04-07T11:10:34;101797.31;;;10.01;73.83
51289;BME280;37372;52.294;5.152;2023-04-07T11:13:09;101800.03;;;10.42;72.58
51289;BME280;37372;52.294;5.152;2023-04-07T11:15:38;101802.38;;;10.39;72.67
51289;BME280;37372;52.294;5.152;2023-04-07T11:18:14;101804.25;;;10.38;71.64
51289;BME280;37372;52.294;5.152;2023-04-07T11:21:00;101797.53;;;10.54;71.23
51289;BME280;37372;52.294;5.152;2023-04-07T11:23:39;101803.31;;;10.18;73.68
51289;BME280;37372;52.294;5.152;2023-04-07T11:26:06;101800.75;;;10.16;73.89
51289;BME280;37372;52.294;5.152;2023-04-07T11:28:33;101808.25;;;10.42;72.71
51289;BME280;37372;52.294;5.152;2023-04-07T11:31:00;101806.22;;;10.64;72.85
51289;BME280;37372;52.294;5.152;2023-04-07T11:33:28;101804.56;;;10.83;72.17
51289;BME280;37372;52.294;5.152;2023-04-07T11:36:01;101796.75;;;11.20;70.83
51289;BME280;37372;52.294;5.152;2023-04-07T11:38:37;101810.09;;;11.16;70.55
51289;BME280;37372;52.294;5.152;2023-04-07T11:41:12;101815.03;;;10.46;71.70
51289;BME280;37372;52.294;5.152;2023-04-07T11:45:00;101816.44;;;10.29;72.97
51289;BME280;37372;52.294;5.152;2023-04-07T11:47:13;101814.41;;;10.03;74.08
51289;BME280;37372;52.294;5.152;2023-04-07T11:49:53;101822.97;;;9.87;75.06
51289;BME280;37372;52.294;5.152;2023-04-07T11:52:19;101820.38;;;9.78;75.10
51289;BME280;37372;52.294;5.152;2023-04-07T11:54:45;101823.03;;;9.65;77.58
51289;BME280;37372;52.294;5.152;2023-04-07T11:57:11;101820.75;;;9.69;77.51
51289;BME280;37372;52.294;5.152;2023-04-07T11:59:38;101825.41;;;9.68;75.19
51289;BME280;37372;52.294;5.152;2023-04-07T12:02:29;101830.88;;;9.68;76.28
51289;BME280;37372;52.294;5.152;2023-04-07T12:04:58;101833.97;;;9.59;76.43
51289;BME280;37372;52.294;5.152;2023-04-07T12:07:23;101836.38;;;9.40;77.02
51289;BME280;37372;52.294;5.152;2023-04-07T12:09:49;101833.63;;;9.40;76.31
51289;BME280;37372;52.294;5.152;2023-04-07T12:12:24;101839.59;;;9.50;77.77
51289;BME280;37372;52.294;5.152;2023-04-07T12:14:52;101844.75;;;9.60;77.18
51289;BME280;37372;52.294;5.152;2023-04-07T12:17:22;101842.25;;;9.72;77.04
51289;BME280;37372;52.294;5.152;2023-04-07T12:19:48;101837.91;;;9.84;76.26
51289;BME280;37372;52.294;5.152;2023-04-07T12:22:21;101846.50;;;9.74;76.57
51289;BME280;37372;52.294;5.152;2023-04-07T12:24:48;101842.47;;;9.70;76.96
51289;BME280;37372;52.294;5.152;2023-04-07T12:27:18;101847.53;;;9.67;77.44
51289;BME280;37372;52.294;5.152;2023-04-07T12:29:43;101847.56;;;9.73;77.92
51289;BME280;37372;52.294;5.152;2023-04-07T12:32:10;101861.34;;;9.87;77.72
51289;BME280;37372;52.294;5.152;2023-04-07T12:34:39;101861.38;;;9.93;75.58
51289;BME280;37372;52.294;5.152;2023-04-07T12:37:05;101865.66;;;10.02;76.03
51289;BME280;37372;52.294;5.152;2023-04-07T12:39:31;101863.50;;;10.26;74.44
51289;BME280;37372;52.294;5.152;2023-04-07T12:42:09;101862.72;;;10.39;74.98
51289;BME280;37372;52.294;5.152;2023-04-07T12:44:39;101870.38;;;10.22;74.80
51289;BME280;37372;52.294;5.152;2023-04-07T12:47:04;101865.66;;;10.37;73.07
51289;BME280;37372;52.294;5.152;2023-04-07T12:49:30;101867.97;;;10.40;74.71
51289;BME280;37372;52.294;5.152;2023-04-07T12:52:04;101874.75;;;10.44;72.87
51289;BME280;37372;52.294;5.152;2023-04-07T12:54:31;101868.66;;;10.55;72.34
51289;BME280;37372;52.294;5.152;2023-04-07T12:56:57;101870.97;;;10.45;73.37
51289;BME280;37372;52.294;5.152;2023-04-07T12:59:24;101870.97;;;10.45;73.98
51289;BME280;37372;52.294;5.152;2023-04-07T13:01:59;101879.44;;;10.50;72.81
51289;BME280;37372;52.294;5.152;2023-04-07T13:04:28;101876.88;;;10.49;72.40
51289;BME280;37372;52.294;5.152;2023-04-07T13:06:55;101879.25;;;10.58;73.12
51289;BME280;37372;52.294;5.152;2023-04-07T13:09:27;101877.91;;;10.48;73.53
51289;BME280;37372;52.294;5.152;2023-04-07T13:11:55;101877.09;;;10.47;74.63
51289;BME280;37372;52.294;5.152;2023-04-07T13:14:25;101881.09;;;10.45;73.99
51289;BME280;37372;52.294;5.152;2023-04-07T13:16:53;101883.81;;;10.38;74.77
51289;BME280;37372;52.294;5.152;2023-04-07T13:19:23;101881.63;;;10.27;74.45
51289;BME280;37372;52.294;5.152;2023-04-07T13:21:49;101884.03;;;10.09;74.89
51289;BME280;37372;52.294;5.152;2023-04-07T13:24:14;101887.03;;;10.14;74.35
51289;BME280;37372;52.294;5.152;2023-04-07T13:26:43;101884.66;;;10.11;74.92
51289;BME280;37372;52.294;5.152;2023-04-07T13:29:19;101884.25;;;10.07;75.68
51289;BME280;37372;52.294;5.152;2023-04-07T13:31:45;101885.66;;;9.96;76.42
51289;BME280;37372;52.294;5.152;2023-04-07T13:34:11;101886.06;;;9.93;76.12
51289;BME280;37372;52.294;5.152;2023-04-07T13:36:37;101886.31;;;9.98;75.48
51289;BME280;37372;52.294;5.152;2023-04-07T13:39:03;101893.13;;;9.81;76.61
51289;BME280;37372;52.294;5.152;2023-04-07T13:41:28;101892.31;;;9.81;75.81
51289;BME280;37372;52.294;5.152;2023-04-07T13:43:54;101892.69;;;9.77;76.64
51289;BME280;37372;52.294;5.152;2023-04-07T13:46:24;101897.84;;;9.66;77.07
51289;BME280;37372;52.294;5.152;2023-04-07T13:48:50;101899.53;;;9.60;76.64
51289;BME280;37372;52.294;5.152;2023-04-07T13:51:16;101896.75;;;9.32;77.94
51289;BME280;37372;52.294;5.152;2023-04-07T13:53:42;101897.16;;;9.57;77.72
51289;BME280;37372;52.294;5.152;2023-04-07T13:56:07;101896.13;;;9.58;76.93
51289;BME280;37372;52.294;5.152;2023-04-07T13:58:34;101900.16;;;9.62;77.51
51289;BME280;37372;52.294;5.152;2023-04-07T14:01:01;101896.84;;;9.45;78.59
51289;BME280;37372;52.294;5.152;2023-04-07T14:03:28;101896.28;;;9.50;78.84
51289;BME280;37372;52.294;5.152;2023-04-07T14:06:02;101900.06;;;9.49;78.64
51289;BME280;37372;52.294;5.152;2023-04-07T14:08:28;101896.41;;;9.42;78.97
51289;BME280;37372;52.294;5.152;2023-04-07T14:11:16;101903.19;;;9.46;78.35
51289;BME280;37372;52.294;5.152;2023-04-07T14:13:42;101898.69;;;9.60;77.38
51289;BME280;37372;52.294;5.152;2023-04-07T14:16:07;101899.75;;;9.37;78.31